Time;durP1;ratioP1;P1;durP2;ratioP2;P2;SDS_P1;SDS_P2;PMS_P1;PMS_P2;Temp;Humidity;BMP_temperature;BMP_pressure;BME280_temperature;BME280_humidity;BME280_pressure;Samples;Min_cycle;Max_cycle;Signal;HPM_P1;HPM_P2
2022/02/21 00:00:40;;;;;;;4.30;1.05;;;8.00;99.90;;;;;;5090034;28;20433;-76
2022/02/21 00:03:06;;;;;;;4.63;0.65;;;7.80;99.90;;;;;;5093858;28;20107;-78
2022/02/21 00:05:33;;;;;;;2.45;0.85;;;7.80;99.90;;;;;;5089668;28;20358;-76
2022/02/21 00:07:59;;;;;;;5.55;1.30;;;7.60;99.90;;;;;;5088362;28;20181;-76
2022/02/21 00:10:24;;;;;;;4.05;0.75;;;7.70;99.90;;;;;;5091255;28;20467;-76
2022/02/21 00:12:51;;;;;;;6.68;0.80;;;7.60;99.90;;;;;;5088745;28;20051;-75
2022/02/21 00:15:17;;;;;;;4.43;1.10;;;7.70;99.90;;;;;;5093832;28;20044;-75
2022/02/21 00:17:44;;;;;;;3.40;1.10;;;7.70;99.90;;;;;;5079818;28;20031;-75
2022/02/21 00:20:10;;;;;;;4.88;1.10;;;7.70;99.90;;;;;;5087563;28;20032;-74
2022/02/21 00:22:36;;;;;;;6.57;1.50;;;7.70;99.90;;;;;;5095405;28;20364;-75
2022/02/21 00:25:02;;;;;;;7.10;1.00;;;7.70;99.90;;;;;;5087657;28;20473;-75
2022/02/21 00:27:28;;;;;;;8.13;1.40;;;7.70;99.90;;;;;;5092880;28;20023;-75
2022/02/21 00:29:53;;;;;;;3.65;1.02;;;7.70;99.90;;;;;;5090063;28;20036;-75
2022/02/21 00:32:19;;;;;;;4.78;1.20;;;7.60;99.90;;;;;;5091061;28;20590;-75
2022/02/21 00:34:44;;;;;;;4.00;1.25;;;7.60;99.90;;;;;;5088579;28;20036;-74
2022/02/21 00:37:10;;;;;;;12.43;1.70;;;7.60;99.90;;;;;;5091583;28;20036;-74
2022/02/21 00:39:36;;;;;;;11.35;2.72;;;7.50;99.90;;;;;;5091474;28;20044;-75
2022/02/21 00:42:02;;;;;;;7.53;2.15;;;7.40;99.90;;;;;;5089444;28;20054;-75
2022/02/21 00:44:28;;;;;;;12.18;1.75;;;7.40;99.90;;;;;;5087892;28;20111;-75
2022/02/21 00:46:56;;;;;;;11.95;2.63;;;7.40;99.90;;;;;;5090330;28;20512;-75
2022/02/21 00:49:22;;;;;;;13.35;2.17;;;7.40;99.90;;;;;;5089039;28;20155;-75
2022/02/21 00:51:47;;;;;;;9.15;1.73;;;7.50;99.90;;;;;;5090768;28;20100;-75
2022/02/21 00:54:13;;;;;;;16.55;2.67;;;7.30;99.90;;;;;;5082509;28;20444;-75
2022/02/21 00:56:38;;;;;;;13.07;2.60;;;7.30;99.90;;;;;;5092467;28;20024;-75
2022/02/21 00:59:04;;;;;;;13.93;2.28;;;7.30;99.90;;;;;;5092254;28;20048;-75
2022/02/21 01:01:29;;;;;;;17.65;3.47;;;7.30;99.90;;;;;;5090274;28;20028;-74
2022/02/21 01:03:55;;;;;;;12.40;2.10;;;7.30;99.90;;;;;;5093540;28;20032;-75
2022/02/21 01:06:21;;;;;;;21.38;3.38;;;7.40;99.90;;;;;;5086315;28;20024;-75
2022/02/21 01:08:46;;;;;;;19.52;2.92;;;7.30;99.90;;;;;;5089266;28;20032;-75
2022/02/21 01:11:13;;;;;;;19.42;3.38;;;7.40;99.90;;;;;;5088716;28;20012;-75
2022/02/21 01:13:39;;;;;;;15.13;3.15;;;7.40;99.90;;;;;;5089612;28;20036;-75
2022/02/21 01:16:05;;;;;;;18.42;3.22;;;7.40;99.90;;;;;;5087555;28;20012;-75
2022/02/21 01:18:31;;;;;;;14.07;2.92;;;7.30;99.90;;;;;;5090798;28;20051;-75
2022/02/21 01:20:57;;;;;;;23.15;3.20;;;7.20;99.90;;;;;;5088217;28;20028;-75
2022/02/21 01:23:22;;;;;;;18.63;3.60;;;7.30;99.90;;;;;;5089302;28;20472;-74
2022/02/21 01:25:48;;;;;;;23.88;3.30;;;7.40;99.90;;;;;;5089629;28;20028;-75
2022/02/21 01:28:14;;;;;;;21.58;3.58;;;7.40;99.90;;;;;;5088379;28;20035;-74
2022/02/21 01:30:40;;;;;;;23.08;4.50;;;7.40;99.90;;;;;;5089827;28;20020;-74
2022/02/21 01:33:06;;;;;;;15.23;4.13;;;7.40;99.90;;;;;;5085798;28;20025;-75
2022/02/21 01:35:32;;;;;;;17.02;3.63;;;7.40;99.90;;;;;;5093770;28;20525;-75
2022/02/21 01:37:57;;;;;;;21.23;3.67;;;7.40;99.90;;;;;;5090871;28;20024;-75
2022/02/21 01:40:23;;;;;;;12.82;2.58;;;7.50;99.90;;;;;;5090884;28;20039;-74
2022/02/21 01:42:48;;;;;;;19.38;3.60;;;7.40;99.90;;;;;;5087063;28;20043;-74
2022/02/21 01:45:14;;;;;;;21.58;3.97;;;7.50;99.90;;;;;;5093128;28;20035;-75
2022/02/21 01:47:40;;;;;;;16.92;3.00;;;7.60;99.90;;;;;;5091165;28;20381;-74
2022/02/21 01:50:06;;;;;;;20.80;2.88;;;7.50;99.90;;;;;;5090021;28;20479;-74
2022/02/21 01:52:33;;;;;;;21.83;3.13;;;7.50;99.90;;;;;;5090205;28;20028;-75
2022/02/21 01:54:59;;;;;;;19.27;3.53;;;7.50;99.90;;;;;;5091181;28;20024;-75
2022/02/21 01:57:28;;;;;;;13.77;2.90;;;7.50;99.90;;;;;;5093294;28;20541;-78
2022/02/21 01:59:53;;;;;;;15.23;2.65;;;7.30;99.90;;;;;;5091152;28;20127;-80
2022/02/21 02:02:19;;;;;;;15.45;2.85;;;7.10;99.90;;;;;;5090646;28;20100;-80
2022/02/21 02:04:44;;;;;;;11.50;2.30;;;6.90;99.90;;;;;;5088762;28;20052;-80
2022/02/21 02:07:13;;;;;;;13.60;2.90;;;6.90;99.90;;;;;;5094130;28;20102;-79
2022/02/21 02:09:39;;;;;;;16.48;2.72;;;6.80;99.90;;;;;;5084590;28;20024;-79
2022/02/21 02:12:09;;;;;;;14.23;3.05;;;6.80;99.90;;;;;;5088696;28;20111;-79
2022/02/21 02:14:39;;;;;;;12.15;2.25;;;6.80;99.90;;;;;;5091183;28;20443;-78
2022/02/21 02:17:10;;;;;;;11.23;2.53;;;6.80;99.90;;;;;;5086151;28;20097;-79
2022/02/21 02:19:36;;;;;;;16.13;3.28;;;6.80;99.90;;;;;;5090304;28;20036;-79
2022/02/21 02:22:11;;;;;;;10.02;2.65;;;6.70;99.90;;;;;;5091481;28;20098;-77
2022/02/21 02:24:37;;;;;;;11.38;2.65;;;6.70;99.90;;;;;;5089471;28;20507;-79
2022/02/21 02:27:03;;;;;;;14.30;3.05;;;6.80;99.90;;;;;;5093906;28;20024;-79
2022/02/21 02:29:29;;;;;;;18.88;3.25;;;6.70;99.90;;;;;;5083566;28;20050;-78
2022/02/21 02:31:55;;;;;;;15.85;2.63;;;6.80;99.90;;;;;;5086934;28;20032;-78
2022/02/21 02:34:21;;;;;;;15.15;2.90;;;6.70;99.90;;;;;;5089310;28;20030;-75
2022/02/21 02:36:48;;;;;;;13.38;3.10;;;6.80;99.90;;;;;;5093815;28;20024;-78
2022/02/21 02:39:15;;;;;;;13.65;3.03;;;6.70;99.90;;;;;;5088016;28;20135;-79
2022/02/21 02:41:42;;;;;;;13.57;2.90;;;6.80;99.90;;;;;;5083980;28;20024;-79
2022/02/21 02:44:07;;;;;;;13.55;2.55;;;6.80;99.90;;;;;;5088559;28;20073;-78
2022/02/21 02:46:33;;;;;;;20.25;3.00;;;6.80;99.90;;;;;;5085927;28;20493;-77
2022/02/21 02:48:58;;;;;;;17.33;2.95;;;6.70;99.90;;;;;;5090053;28;20028;-79
2022/02/21 02:51:24;;;;;;;16.15;3.22;;;6.80;99.90;;;;;;5087932;28;20028;-78
2022/02/21 02:53:50;;;;;;;13.10;2.78;;;6.70;99.90;;;;;;5085390;28;20028;-78
2022/02/21 02:56:16;;;;;;;11.88;2.47;;;6.60;99.90;;;;;;5088969;28;20144;-79
2022/02/21 02:58:42;;;;;;;12.85;2.08;;;6.60;99.90;;;;;;5092208;28;20032;-79
2022/02/21 03:01:07;;;;;;;13.63;2.40;;;6.40;99.90;;;;;;5090363;28;20016;-80
2022/02/21 03:03:34;;;;;;;12.23;2.15;;;6.30;99.90;;;;;;5091385;28;20032;-79
2022/02/21 03:05:59;;;;;;;16.48;2.35;;;6.20;99.90;;;;;;5091999;28;20487;-79
2022/02/21 03:08:25;;;;;;;10.40;2.95;;;6.20;99.90;;;;;;5083602;28;20025;-79
2022/02/21 03:10:50;;;;;;;11.80;2.72;;;6.20;99.90;;;;;;5091311;28;20024;-80
2022/02/21 03:13:16;;;;;;;9.48;2.17;;;6.20;99.90;;;;;;5089313;28;20388;-80
2022/02/21 03:15:42;;;;;;;14.65;2.70;;;6.20;99.90;;;;;;5087833;28;20028;-79
2022/02/21 03:18:09;;;;;;;14.20;3.08;;;6.20;99.90;;;;;;5084402;28;20107;-80
2022/02/21 03:20:35;;;;;;;13.60;3.08;;;6.10;99.90;;;;;;5089248;28;20067;-80
2022/02/21 03:23:00;;;;;;;12.60;2.70;;;6.20;99.90;;;;;;5086473;28;20445;-79
2022/02/21 03:25:26;;;;;;;23.10;3.58;;;6.20;99.90;;;;;;5090064;28;20385;-78
2022/02/21 03:27:52;;;;;;;12.95;2.83;;;6.30;99.90;;;;;;5087220;28;20028;-80
2022/02/21 03:30:18;;;;;;;12.90;3.40;;;6.30;99.90;;;;;;5083986;28;20063;-80
2022/02/21 03:32:44;;;;;;;15.90;3.03;;;6.20;99.90;;;;;;5090649;28;20031;-78
2022/02/21 03:35:10;;;;;;;17.35;3.72;;;6.20;99.90;;;;;;5085000;28;20028;-79
2022/02/21 03:37:36;;;;;;;18.25;3.42;;;6.10;99.90;;;;;;5089080;28;20030;-79
2022/02/21 03:40:04;;;;;;;18.48;2.53;;;6.10;99.90;;;;;;5086376;28;20504;-78
2022/02/21 03:42:29;;;;;;;15.20;2.83;;;6.10;99.90;;;;;;5088722;28;20088;-79
2022/02/21 03:44:55;;;;;;;16.80;4.10;;;6.10;99.90;;;;;;5086163;28;20117;-79
2022/02/21 03:47:20;;;;;;;20.42;3.42;;;6.20;99.90;;;;;;5087315;28;20112;-79
2022/02/21 03:49:46;;;;;;;11.15;2.65;;;6.20;99.90;;;;;;5090623;28;20028;-79
2022/02/21 03:52:12;;;;;;;14.20;2.75;;;6.20;99.90;;;;;;5088101;28;20042;-78
2022/02/21 03:54:37;;;;;;;14.80;2.40;;;6.30;99.90;;;;;;5090477;28;20431;-78
2022/02/21 03:57:03;;;;;;;11.82;2.70;;;6.10;99.90;;;;;;5084429;28;20099;-77
2022/02/21 03:59:28;;;;;;;15.30;2.63;;;6.20;99.90;;;;;;5088800;28;20116;-78
2022/02/21 04:01:54;;;;;;;14.32;2.25;;;6.20;99.90;;;;;;5089303;28;20086;-78
2022/02/21 04:04:20;;;;;;;18.52;2.70;;;6.30;99.90;;;;;;5086480;28;20020;-78
2022/02/21 04:06:45;;;;;;;16.27;2.70;;;6.20;99.90;;;;;;5086734;28;20446;-77
2022/02/21 04:09:12;;;;;;;16.65;3.03;;;6.30;99.90;;;;;;5088613;28;20024;-77
2022/02/21 04:11:38;;;;;;;14.93;3.13;;;6.30;99.90;;;;;;5089176;28;20032;-78
2022/02/21 04:14:04;;;;;;;13.93;3.22;;;6.30;99.90;;;;;;5084704;28;20047;-79
2022/02/21 04:16:34;;;;;;;13.98;3.17;;;6.30;99.90;;;;;;5090062;28;20024;-79
2022/02/21 04:19:02;;;;;;;11.30;2.75;;;6.30;99.90;;;;;;5084022;28;20120;-80
2022/02/21 04:21:28;;;;;;;14.73;2.67;;;6.20;99.90;;;;;;5090199;28;20063;-77
2022/02/21 04:23:54;;;;;;;16.00;3.15;;;6.30;99.90;;;;;;5083416;28;20036;-77
2022/02/21 04:26:20;;;;;;;13.95;2.83;;;6.30;99.90;;;;;;5089457;28;20019;-78
2022/02/21 04:28:45;;;;;;;17.10;2.90;;;6.40;99.90;;;;;;5083194;28;20032;-77
2022/02/21 04:31:14;;;;;;;15.15;3.28;;;6.50;99.90;;;;;;5086029;28;20059;-78
2022/02/21 04:33:40;;;;;;;21.48;3.25;;;6.40;99.90;;;;;;5089616;28;20111;-80
2022/02/21 04:36:05;;;;;;;16.58;2.80;;;6.10;99.90;;;;;;5088258;28;20040;-79
2022/02/21 04:38:31;;;;;;;12.98;3.35;;;6.10;99.90;;;;;;5088420;28;20028;-79
2022/02/21 04:40:57;;;;;;;11.32;2.33;;;6.00;99.90;;;;;;5084748;28;20032;-78
2022/02/21 04:43:23;;;;;;;15.10;2.58;;;6.20;99.90;;;;;;5087262;28;20078;-77
2022/02/21 04:45:54;;;;;;;23.05;3.25;;;6.20;99.90;;;;;;5084268;28;20024;-76
2022/02/21 04:48:21;;;;;;;19.05;3.30;;;6.20;99.90;;;;;;5090651;28;20024;-76
2022/02/21 04:50:47;;;;;;;12.77;2.70;;;6.30;99.90;;;;;;5088406;28;20217;-76
2022/02/21 04:53:13;;;;;;;14.02;2.38;;;6.40;99.90;;;;;;5092604;28;22064;-76
2022/02/21 04:55:38;;;;;;;20.30;2.88;;;6.50;99.90;;;;;;5091339;28;20039;-78
2022/02/21 04:58:04;;;;;;;16.55;3.00;;;6.50;99.90;;;;;;5095517;28;20043;-77
2022/02/21 05:00:30;;;;;;;11.85;3.00;;;6.40;99.90;;;;;;5091706;28;20040;-76
2022/02/21 05:02:55;;;;;;;16.30;3.22;;;6.40;99.90;;;;;;5091987;28;20097;-76
2022/02/21 05:05:21;;;;;;;11.68;2.58;;;6.40;99.90;;;;;;5092440;28;20106;-76
2022/02/21 05:07:47;;;;;;;13.75;2.55;;;6.40;99.90;;;;;;5090377;28;20399;-76
2022/02/21 05:10:13;;;;;;;13.00;2.80;;;6.30;99.90;;;;;;5095397;28;20139;-76
2022/02/21 05:12:39;;;;;;;15.98;3.00;;;6.20;99.90;;;;;;5091565;28;20021;-76
2022/02/21 05:15:06;;;;;;;9.90;2.67;;;6.30;99.90;;;;;;5091922;28;20032;-78
2022/02/21 05:17:32;;;;;;;13.52;3.30;;;6.20;99.90;;;;;;5087379;28;20027;-77
2022/02/21 05:19:58;;;;;;;14.93;3.10;;;5.90;99.90;;;;;;5092347;28;20044;-77
2022/02/21 05:22:23;;;;;;;19.55;3.03;;;5.90;99.90;;;;;;5085088;28;20233;-76
2022/02/21 05:24:50;;;;;;;15.07;2.80;;;5.90;99.90;;;;;;5090572;28;20024;-76
2022/02/21 05:27:16;;;;;;;20.20;3.85;;;5.80;99.90;;;;;;5086862;28;20021;-76
2022/02/21 05:29:42;;;;;;;16.20;3.30;;;5.80;99.90;;;;;;5091995;28;20063;-76
2022/02/21 05:32:10;;;;;;;14.88;2.95;;;5.80;99.90;;;;;;5084205;28;20064;-76
2022/02/21 05:34:38;;;;;;;15.80;2.78;;;5.70;99.90;;;;;;5091694;28;20020;-76
2022/02/21 05:37:06;;;;;;;15.27;2.78;;;5.80;99.90;;;;;;5094849;28;20550;-76
2022/02/21 05:39:33;;;;;;;14.73;2.97;;;5.80;99.90;;;;;;5091164;28;20036;-76
2022/02/21 05:41:59;;;;;;;17.75;3.03;;;5.80;99.90;;;;;;5093606;28;20433;-77
2022/02/21 05:44:24;;;;;;;20.10;3.28;;;5.80;99.90;;;;;;5084957;28;20115;-77
2022/02/21 05:46:50;;;;;;;16.05;3.20;;;5.90;99.90;;;;;;5088692;28;20056;-76
2022/02/21 05:49:16;;;;;;;20.65;3.08;;;5.90;99.90;;;;;;5087047;28;20021;-76
2022/02/21 05:51:42;;;;;;;16.30;3.13;;;6.00;99.90;;;;;;5091864;28;20025;-77
2022/02/21 05:54:07;;;;;;;17.70;3.47;;;5.90;99.90;;;;;;5088728;28;20020;-76
2022/02/21 05:56:33;;;;;;;20.13;3.90;;;5.90;99.90;;;;;;5090414;28;20016;-76
2022/02/21 05:58:59;;;;;;;17.80;3.28;;;5.90;99.90;;;;;;5091269;28;20050;-76
2022/02/21 06:01:24;;;;;;;18.13;3.78;;;6.00;99.90;;;;;;5094596;28;20027;-76
2022/02/21 06:03:50;;;;;;;18.52;4.13;;;5.90;99.90;;;;;;5090458;28;20487;-76
2022/02/21 06:06:16;;;;;;;18.13;3.22;;;6.00;99.90;;;;;;5086038;28;20023;-77
2022/02/21 06:08:41;;;;;;;26.42;3.78;;;6.00;99.90;;;;;;5086249;28;20032;-76
2022/02/21 06:11:07;;;;;;;13.93;2.88;;;5.90;99.90;;;;;;5091710;28;20026;-76
2022/02/21 06:13:33;;;;;;;13.63;2.95;;;5.80;99.90;;;;;;5081666;28;20036;-76
2022/02/21 06:15:59;;;;;;;18.45;3.17;;;5.90;99.90;;;;;;5088977;28;20082;-76
2022/02/21 06:18:25;;;;;;;20.67;3.47;;;5.90;99.90;;;;;;5089584;28;20484;-76
2022/02/21 06:20:51;;;;;;;18.40;3.70;;;5.90;99.90;;;;;;5089699;28;20059;-76
2022/02/21 06:23:17;;;;;;;17.42;3.80;;;5.90;99.90;;;;;;5092397;28;20028;-76
2022/02/21 06:25:44;;;;;;;15.90;2.78;;;5.90;99.90;;;;;;5089807;28;20020;-76
2022/02/21 06:28:10;;;;;;;17.08;3.50;;;6.00;99.90;;;;;;5087094;28;20016;-77
2022/02/21 06:30:37;;;;;;;13.80;3.15;;;6.00;99.90;;;;;;5091639;28;20024;-77
2022/02/21 06:33:02;;;;;;;19.08;3.15;;;5.90;99.90;;;;;;5089525;28;20016;-77
2022/02/21 06:35:28;;;;;;;23.38;5.00;;;5.90;99.90;;;;;;5087055;28;20028;-76
2022/02/21 06:37:55;;;;;;;19.73;2.65;;;6.00;99.90;;;;;;5088787;28;20024;-76
2022/02/21 06:40:22;;;;;;;20.23;2.63;;;5.90;99.90;;;;;;5085326;28;20031;-76
2022/02/21 06:42:50;;;;;;;18.05;2.90;;;6.00;99.90;;;;;;5090583;28;20126;-76
2022/02/21 06:45:17;;;;;;;20.23;3.20;;;5.80;99.90;;;;;;5087945;28;20097;-77
2022/02/21 06:47:43;;;;;;;25.17;3.45;;;5.80;99.90;;;;;;5083906;28;20052;-77
2022/02/21 06:50:09;;;;;;;15.90;3.08;;;5.80;99.90;;;;;;5090052;28;20028;-76
2022/02/21 06:52:35;;;;;;;10.88;3.25;;;5.90;99.90;;;;;;5090506;28;20468;-76
2022/02/21 06:55:01;;;;;;;10.95;2.33;;;5.80;99.90;;;;;;5084804;28;20042;-76
2022/02/21 06:57:27;;;;;;;16.98;3.13;;;5.80;99.90;;;;;;5086466;28;20511;-76
2022/02/21 06:59:53;;;;;;;15.32;3.20;;;5.80;99.90;;;;;;5087681;28;20094;-76
2022/02/21 07:02:19;;;;;;;13.63;2.65;;;5.80;99.90;;;;;;5084422;28;20086;-76
2022/02/21 07:04:45;;;;;;;14.95;3.17;;;5.90;99.90;;;;;;5089692;28;20036;-76
2022/02/21 07:07:10;;;;;;;11.52;2.35;;;5.90;99.90;;;;;;5083108;28;20094;-76
2022/02/21 07:09:36;;;;;;;16.33;2.78;;;5.90;99.90;;;;;;5090224;28;20099;-77
2022/02/21 07:12:02;;;;;;;11.13;2.97;;;5.80;99.90;;;;;;5089073;28;20050;-77
2022/02/21 07:14:28;;;;;;;13.90;2.30;;;5.90;99.90;;;;;;5084971;28;20457;-76
2022/02/21 07:16:54;;;;;;;11.00;2.30;;;5.80;99.90;;;;;;5089602;28;20066;-75
2022/02/21 07:19:21;;;;;;;18.40;3.47;;;5.80;99.90;;;;;;5088357;28;20043;-75
2022/02/21 07:21:46;;;;;;;13.27;3.50;;;5.90;99.90;;;;;;5087539;28;20039;-73
2022/02/21 07:24:12;;;;;;;11.68;2.58;;;5.90;99.90;;;;;;5087264;28;20020;-77
2022/02/21 07:26:38;;;;;;;10.25;2.38;;;5.80;99.90;;;;;;5084331;28;20084;-77
2022/02/21 07:29:06;;;;;;;6.80;2.20;;;5.90;99.90;;;;;;5089293;28;20024;-78
2022/02/21 07:31:32;;;;;;;12.38;2.88;;;5.90;99.90;;;;;;5081663;28;20024;-74
2022/02/21 07:33:59;;;;;;;11.10;2.47;;;5.80;99.90;;;;;;5088011;28;20110;-76
2022/02/21 07:36:26;;;;;;;14.75;2.33;;;5.80;99.90;;;;;;5091420;28;20016;-77
2022/02/21 07:38:52;;;;;;;14.55;2.45;;;5.80;99.90;;;;;;5082019;28;20031;-77
2022/02/21 07:41:17;;;;;;;12.27;2.30;;;5.90;99.90;;;;;;5088310;28;20028;-77
2022/02/21 07:43:43;;;;;;;12.55;2.35;;;5.80;99.90;;;;;;5086562;28;20036;-77
2022/02/21 07:46:09;;;;;;;11.68;2.30;;;5.90;99.90;;;;;;5087016;28;20012;-77
2022/02/21 07:48:35;;;;;;;10.70;2.35;;;5.80;99.90;;;;;;5083473;28;20020;-78
2022/02/21 07:51:01;;;;;;;11.88;2.90;;;5.80;99.90;;;;;;5087359;28;20031;-77
2022/02/21 07:53:26;;;;;;;14.38;2.38;;;5.80;99.90;;;;;;5085140;28;20017;-78
2022/02/21 07:55:52;;;;;;;11.88;2.17;;;5.80;99.90;;;;;;5085195;28;20481;-77
2022/02/21 07:58:18;;;;;;;15.23;2.83;;;5.90;99.90;;;;;;5087316;28;20792;-75
2022/02/21 08:00:43;;;;;;;13.60;2.28;;;5.90;99.90;;;;;;5085696;28;20047;-75
2022/02/21 08:03:09;;;;;;;14.35;2.35;;;5.90;99.90;;;;;;5084798;28;20029;-79
2022/02/21 08:05:36;;;;;;;12.95;2.08;;;5.90;99.90;;;;;;5083120;28;20028;-78
2022/02/21 08:08:10;;;;;;;13.75;2.80;;;5.90;99.90;;;;;;5084566;28;20016;-78
2022/02/21 08:10:36;;;;;;;15.07;2.55;;;6.00;99.90;;;;;;5086845;28;20082;-79
2022/02/21 08:13:02;;;;;;;13.88;2.47;;;6.10;99.90;;;;;;5086702;28;20069;-80
2022/02/21 08:15:29;;;;;;;11.93;2.45;;;6.10;99.90;;;;;;5086696;28;20028;-79
2022/02/21 08:17:55;;;;;;;9.02;1.98;;;6.20;99.90;;;;;;5091031;28;20526;-79
2022/02/21 08:20:23;;;;;;;7.63;1.92;;;6.30;99.90;;;;;;5081272;28;20083;-78
2022/02/21 08:22:50;;;;;;;13.18;2.55;;;6.30;99.90;;;;;;5089957;28;20016;-77
2022/02/21 08:25:16;;;;;;;12.90;2.03;;;6.40;99.90;;;;;;5088264;28;20089;-75
2022/02/21 08:27:42;;;;;;;12.20;2.15;;;6.50;99.90;;;;;;5095297;28;20016;-75
2022/02/21 08:30:11;;;;;;;11.93;2.58;;;6.70;99.90;;;;;;5089534;28;20108;-77
2022/02/21 08:32:36;;;;;;;9.57;2.00;;;6.80;99.90;;;;;;5089548;28;20028;-76
2022/02/21 08:35:02;;;;;;;12.52;1.83;;;6.90;99.90;;;;;;5091618;28;20377;-80
2022/02/21 08:37:29;;;;;;;12.10;2.05;;;7.00;99.90;;;;;;5089304;28;20058;-76
2022/02/21 08:39:55;;;;;;;10.55;2.47;;;7.10;99.90;;;;;;5093578;28;20479;-78
2022/02/21 08:42:21;;;;;;;10.15;2.80;;;7.10;99.90;;;;;;5091450;28;20048;-78
2022/02/21 08:44:46;;;;;;;9.43;2.42;;;7.20;99.90;;;;;;5088847;28;20056;-77
2022/02/21 08:47:14;;;;;;;14.07;2.08;;;7.10;99.90;;;;;;5093255;28;20016;-77
2022/02/21 08:49:40;;;;;;;13.25;2.15;;;7.10;99.90;;;;;;5089839;28;20069;-77
2022/02/21 08:52:06;;;;;;;9.10;2.30;;;7.10;99.90;;;;;;5090779;28;20049;-77
2022/02/21 08:54:35;;;;;;;9.15;2.60;;;7.10;99.90;;;;;;5090816;28;20104;-76
2022/02/21 08:57:02;;;;;;;10.75;2.38;;;7.10;99.90;;;;;;5093173;28;20020;-78
2022/02/21 08:59:28;;;;;;;13.15;2.10;;;7.10;99.90;;;;;;5088803;28;20475;-77
2022/02/21 09:01:53;;;;;;;12.45;2.60;;;7.00;99.90;;;;;;5088825;28;20052;-79
2022/02/21 09:04:19;;;;;;;11.98;2.70;;;7.10;99.90;;;;;;5086734;28;20074;-76
2022/02/21 09:06:44;;;;;;;13.80;2.90;;;7.00;99.90;;;;;;5090995;28;20028;-76
2022/02/21 09:09:10;;;;;;;15.00;3.03;;;6.90;99.90;;;;;;5088989;28;20463;-77
2022/02/21 09:11:36;;;;;;;12.80;2.75;;;6.90;99.90;;;;;;5091635;28;20031;-75
2022/02/21 09:14:01;;;;;;;14.18;3.13;;;6.90;99.90;;;;;;5085215;28;20024;-74
2022/02/21 09:16:27;;;;;;;16.17;2.70;;;6.90;99.90;;;;;;5088124;28;20082;-76
2022/02/21 09:18:53;;;;;;;13.35;3.13;;;6.90;99.90;;;;;;5085960;28;20248;-76
2022/02/21 09:21:18;;;;;;;11.25;2.78;;;6.90;99.90;;;;;;5089416;28;20036;-76
2022/02/21 09:23:44;;;;;;;12.23;2.17;;;6.90;99.90;;;;;;5089139;28;20107;-77
2022/02/21 09:26:09;;;;;;;17.85;3.45;;;6.90;99.90;;;;;;5087097;28;20160;-78
2022/02/21 09:28:35;;;;;;;14.68;3.05;;;6.80;99.90;;;;;;5082427;28;20024;-78
2022/02/21 09:31:01;;;;;;;13.30;3.85;;;6.70;99.90;;;;;;5090712;28;20035;-78
2022/02/21 09:33:26;;;;;;;21.05;3.47;;;6.70;99.90;;;;;;5087677;28;20032;-77
2022/02/21 09:35:52;;;;;;;17.65;3.47;;;6.70;99.90;;;;;;5087596;28;20024;-78
2022/02/21 09:38:18;;;;;;;14.38;3.53;;;6.80;99.90;;;;;;5084844;28;20036;-77
2022/02/21 09:40:46;;;;;;;18.05;2.70;;;6.60;99.90;;;;;;5089983;28;20033;-74
2022/02/21 09:43:17;;;;;;;19.52;3.55;;;6.50;99.90;;;;;;5085327;28;20032;-77
2022/02/21 09:45:43;;;;;;;19.67;3.38;;;6.50;99.90;;;;;;5087540;28;20466;-75
2022/02/21 09:48:12;;;;;;;15.75;3.65;;;6.50;99.90;;;;;;5084109;28;20078;-73
2022/02/21 09:50:39;;;;;;;16.08;2.90;;;6.50;99.90;;;;;;5086350;28;20032;-74
2022/02/21 09:53:05;;;;;;;21.63;4.25;;;6.40;99.90;;;;;;5089348;28;20047;-74
2022/02/21 09:55:32;;;;;;;17.83;4.10;;;6.40;99.90;;;;;;5088317;28;20101;-77
2022/02/21 09:57:58;;;;;;;17.98;3.25;;;6.50;99.90;;;;;;5080735;28;20052;-75
2022/02/21 10:00:24;;;;;;;13.65;3.00;;;6.60;99.90;;;;;;5088453;28;20756;-74
2022/02/21 10:02:51;;;;;;;20.30;4.00;;;6.70;99.90;;;;;;5086216;28;20416;-76
2022/02/21 10:05:26;;;;;;;12.65;2.38;;;6.70;99.90;;;;;;5087363;28;20085;-74
2022/02/21 10:07:53;;;;;;;13.70;3.25;;;6.60;99.90;;;;;;5091810;28;20024;-75
2022/02/21 10:10:22;;;;;;;18.50;3.28;;;6.60;99.90;;;;;;5092010;28;20028;-75
2022/02/21 10:12:58;;;;;;;20.50;3.63;;;6.70;99.90;;;;;;5084531;28;20029;-74
2022/02/21 10:15:28;;;;;;;17.52;3.17;;;6.70;99.90;;;;;;5087430;28;20032;-74
2022/02/21 10:18:17;;;;;;;17.52;3.22;;;6.90;99.90;;;;;;5085110;28;20031;-79
2022/02/21 10:21:00;;;;;;;18.33;3.97;;;7.00;99.90;;;;;;5083848;28;20433;-75
2022/02/21 10:23:30;;;;;;;17.17;3.70;;;7.10;99.90;;;;;;5083984;28;20493;-77
2022/02/21 10:25:58;;;;;;;16.98;3.60;;;7.10;99.90;;;;;;5091941;28;20028;-75
2022/02/21 10:28:31;;;;;;;21.02;4.03;;;7.00;99.90;;;;;;5087243;28;20031;-75
2022/02/21 10:31:17;;;;;;;16.02;3.60;;;7.10;99.90;;;;;;5081453;28;20492;-75
2022/02/21 10:33:49;;;;;;;22.08;4.05;;;7.10;99.90;;;;;;5088578;28;20036;-76
2022/02/21 10:36:42;;;;;;;24.60;4.13;;;7.00;99.90;;;;;;5089268;28;20039;-76
2022/02/21 10:39:17;;;;;;;25.13;4.25;;;6.90;99.90;;;;;;5084751;28;20044;-76
2022/02/21 10:41:50;;;;;;;24.83;4.22;;;6.90;99.90;;;;;;5088028;28;20031;-76
2022/02/21 10:44:17;;;;;;;24.20;4.13;;;6.90;99.90;;;;;;5083576;28;20035;-75
2022/02/21 10:47:17;;;;;;;23.25;4.43;;;6.90;99.90;;;;;;5085601;28;20036;-76
2022/02/21 10:49:47;;;;;;;22.55;4.55;;;6.80;99.90;;;;;;5087403;28;20489;-76
2022/02/21 10:52:15;;;;;;;17.45;4.15;;;6.90;99.90;;;;;;5085166;28;20066;-75
2022/02/21 10:54:41;;;;;;;27.55;3.95;;;6.80;99.90;;;;;;5085739;28;20020;-76
2022/02/21 10:57:12;;;;;;;26.17;4.25;;;6.80;99.90;;;;;;5090920;28;20157;-75
2022/02/21 10:59:38;;;;;;;27.17;4.30;;;6.70;99.90;;;;;;5092327;28;20068;-75
2022/02/21 11:02:06;;;;;;;28.80;4.88;;;6.80;99.90;;;;;;5083396;28;20020;-75
2022/02/21 11:04:33;;;;;;;31.63;4.63;;;6.80;99.90;;;;;;5090917;28;20384;-74
2022/02/21 11:06:59;;;;;;;21.33;5.53;;;6.80;99.90;;;;;;5083672;28;20020;-75
2022/02/21 11:09:28;;;;;;;17.58;5.00;;;6.80;99.90;;;;;;5088665;28;20032;-77
2022/02/21 11:11:59;;;;;;;28.38;4.72;;;6.70;99.90;;;;;;5083653;28;20060;-75
2022/02/21 11:14:30;;;;;;;25.65;4.85;;;6.70;99.90;;;;;;5085393;28;20484;-77
2022/02/21 11:16:59;;;;;;;26.60;4.63;;;6.80;99.90;;;;;;5085459;28;20111;-75
2022/02/21 11:19:25;;;;;;;28.45;5.22;;;6.80;99.90;;;;;;5090537;28;20039;-75
2022/02/21 11:21:51;;;;;;;28.67;5.07;;;6.90;99.90;;;;;;5085972;28;20052;-75
2022/02/21 11:24:22;;;;;;;22.38;4.93;;;6.90;99.90;;;;;;5084226;28;20099;-74
2022/02/21 11:27:18;;;;;;;28.13;5.15;;;6.90;99.90;;;;;;5085295;28;20102;-75
2022/02/21 11:30:07;;;;;;;27.75;6.07;;;6.90;99.90;;;;;;5088368;28;20028;-74
2022/02/21 11:32:33;;;;;;;28.90;5.43;;;7.00;99.90;;;;;;5088831;28;20083;-74
2022/02/21 11:35:18;;;;;;;29.55;4.72;;;7.00;99.90;;;;;;5084042;28;20032;-75
2022/02/21 11:37:47;;;;;;;26.73;5.55;;;7.00;99.90;;;;;;5085673;28;20397;-74
2022/02/21 11:40:14;;;;;;;28.08;5.60;;;7.10;99.90;;;;;;5084943;28;20819;-74
2022/02/21 11:42:41;;;;;;;25.48;4.50;;;7.00;99.90;;;;;;5082857;28;20052;-74
2022/02/21 11:45:28;;;;;;;22.48;4.05;;;6.90;99.90;;;;;;5086748;28;20047;-76
2022/02/21 11:47:59;;;;;;;25.27;4.78;;;7.00;99.90;;;;;;5086202;28;20109;-75
2022/02/21 11:50:28;;;;;;;22.20;4.80;;;7.10;99.90;;;;;;5083484;28;20547;-75
2022/02/21 11:53:16;;;;;;;28.38;5.30;;;7.10;99.90;;;;;;5086774;28;20028;-75
2022/02/21 11:55:43;;;;;;;28.90;5.22;;;7.10;99.90;;;;;;5082485;28;20083;-74
2022/02/21 11:58:12;;;;;;;29.48;5.30;;;7.20;99.90;;;;;;5090566;28;20058;-75
2022/02/21 12:00:42;;;;;;;27.50;6.00;;;7.20;99.90;;;;;;5093498;28;20043;-75
2022/02/21 12:03:15;;;;;;;24.33;5.40;;;7.20;99.90;;;;;;5091878;28;20480;-75
2022/02/21 12:05:44;;;;;;;25.65;4.68;;;7.20;99.90;;;;;;5094505;28;20036;-75
2022/02/21 12:08:31;;;;;;;29.85;5.75;;;7.10;99.90;;;;;;5092717;28;20369;-75
2022/02/21 12:11:15;;;;;;;33.20;6.00;;;7.20;99.90;;;;;;5090465;28;20099;-74
2022/02/21 12:13:50;;;;;;;28.30;5.05;;;7.10;99.90;;;;;;5087430;28;20035;-75
2022/02/21 12:16:20;;;;;;;32.50;5.35;;;7.10;99.90;;;;;;5087567;28;20489;-75
2022/02/21 12:18:47;;;;;;;35.25;5.40;;;7.20;99.90;;;;;;5087598;28;20039;-75
2022/02/21 12:21:21;;;;;;;30.65;6.25;;;7.20;99.90;;;;;;5087932;28;20473;-75
2022/02/21 12:23:52;;;;;;;26.35;5.13;;;7.30;99.90;;;;;;5088664;28;20055;-75
2022/02/21 12:26:20;;;;;;;38.10;6.38;;;7.20;99.90;;;;;;5089600;28;20027;-75
2022/02/21 12:29:07;;;;;;;25.05;4.90;;;7.30;99.90;;;;;;5087202;28;20115;-75
2022/02/21 12:31:33;;;;;;;30.95;5.65;;;7.40;99.90;;;;;;5084667;28;20025;-75
2022/02/21 12:33:59;;;;;;;32.72;6.82;;;7.40;99.90;;;;;;5092507;28;20028;-75
2022/02/21 12:36:32;;;;;;;34.92;6.43;;;7.50;99.90;;;;;;5086460;28;20089;-75
2022/02/21 12:38:58;;;;;;;35.20;6.90;;;7.50;99.90;;;;;;5091093;28;20023;-75
2022/02/21 12:41:31;;;;;;;30.98;6.70;;;7.70;99.90;;;;;;5089191;28;20034;-75
2022/02/21 12:44:03;;;;;;;48.00;6.88;;;7.90;99.90;;;;;;5091082;28;20032;-75
2022/02/21 12:46:37;;;;;;;31.30;6.28;;;8.00;99.90;;;;;;5084366;28;20067;-76
2022/02/21 12:49:14;;;;;;;32.65;6.55;;;7.90;99.90;;;;;;5087505;28;20480;-76